Startpagina
METAR-TAF:

METAR-TAF

Vliegvelden :

Jekaterinenburg, Rusland

Luchthaven Koltsovo

breedte: 56-50N, lengte: 060-38E, hoogte: 237 m

Actueel weer

Dit bericht is 32 minuten geleden gemaakt, om 06:00 UTC
Wind 8 kt uit het zuidwesten
Temperatuur 0°C
Vochtigheid 86%
Druk 1023 hPa
Zicht 10 km of meer
Geheel bewolkt op 3300 ft

METAR: USSS 190600Z 22004MPS 9999 OVC033 M00/M02 Q1023 R26R/290040 NOSIG RMK QFE746/0995

Tijdstip: 11:32 (06:32 UTC)

Verwachting

Dit bericht is 1 uur en het 37 minuten geleden gemaakt, om 04:55 UTC
Verwachting geldig van 19 om 06 UTC tot 20 om 06 UTC
Wind 12 kt uit het zuidwesten
Zicht 10 km of meer
Gebroken wolken op 1100 ft
Verspreide wolken op 2000 ft, Cumulonimbus.
Tijdelijke
van 19 om 06 UTC tot 19 om 18 UTC
Wind 19 kt uit het westzuidwesten
Zicht: 3100 m
lichte sneeuwbuien, regen

TAF: USSS 190455Z 1906/2006 23006MPS 9999 BKN011 SCT020CB TEMPO 1906/1918 25010MPS 3100 -SHSNRA

Waarnemingen en weersverwachtingen van meer dan 4000 vliegvelden (METAR en TAF).

De beschikbare stations zijn de gele en rode punten op de kaart.

Ga met uw muis naar het station om de naam te zien.

Klik dan om waarnemingen en weersverwachtingen te zien.

kaart wijzigen: klik op de groene knoppen met een zwart kruis om in te zoomen, op de groene knop met een streepje om uit te zoomen of op de groene pijlen voor aangrenzende kaarten.


METAR-TAF: